Time;durP1;ratioP1;P1;durP2;ratioP2;P2;SDS_P1;SDS_P2;PMS_P1;PMS_P2;Temp;Humidity;BMP_temperature;BMP_pressure;BME280_temperature;BME280_humidity;BME280_pressure;Samples;Min_cycle;Max_cycle;Signal;HPM_P1;HPM_P2
2022/11/06 00:00:05;;;;;;;13.82;9.02;;;5.30;99.90;;;;;;5021180;28;20112;-77
2022/11/06 00:02:31;;;;;;;12.05;9.23;;;5.40;99.90;;;;;;5031372;28;20044;-77
2022/11/06 00:06:46;;;;;;;18.35;10.07;;;5.30;99.90;;;;;;5018426;28;20097;-77
2022/11/06 00:07:47;;;;;;;23.08;12.70;;;5.30;99.90;;;;;;5016527;28;20014;-77
2022/11/06 00:10:13;;;;;;;19.55;11.93;;;5.30;99.90;;;;;;5014394;28;20506;-77
2022/11/06 00:12:39;;;;;;;17.48;9.43;;;5.20;99.90;;;;;;5021170;28;20021;-77
2022/11/06 00:15:06;;;;;;;19.25;10.23;;;5.10;99.90;;;;;;5027407;28;20112;-77
2022/11/06 00:17:32;;;;;;;17.33;8.05;;;5.10;99.90;;;;;;5020234;28;20025;-77
2022/11/06 00:19:58;;;;;;;18.05;8.07;;;5.10;99.90;;;;;;5027683;28;20029;-77
2022/11/06 00:22:23;;;;;;;15.23;7.25;;;5.10;99.90;;;;;;5019462;28;20022;-77
2022/11/06 00:24:49;;;;;;;10.85;7.15;;;5.00;99.90;;;;;;5026965;28;20037;-77
2022/11/06 00:27:16;;;;;;;11.70;6.97;;;5.00;99.90;;;;;;5025216;28;20022;-77
2022/11/06 00:29:41;;;;;;;18.27;6.50;;;4.90;99.90;;;;;;5031393;28;20072;-77
2022/11/06 00:32:08;;;;;;;13.52;6.72;;;4.90;99.90;;;;;;5021863;28;20100;-77
2022/11/06 00:34:34;;;;;;;15.07;7.75;;;5.00;99.90;;;;;;5024531;28;20025;-77
2022/11/06 00:37:00;;;;;;;19.30;7.25;;;5.00;99.90;;;;;;5016501;28;20096;-77
2022/11/06 00:39:26;;;;;;;14.52;6.63;;;5.00;99.90;;;;;;5021260;28;20029;-78
2022/11/06 00:41:51;;;;;;;14.93;8.02;;;5.00;99.90;;;;;;5028393;28;20029;-78
2022/11/06 00:44:17;;;;;;;17.35;7.50;;;5.00;99.90;;;;;;5016940;28;20109;-78
2022/11/06 00:46:43;;;;;;;19.23;8.07;;;5.00;99.90;;;;;;5015983;28;20070;-78
2022/11/06 00:49:09;;;;;;;15.73;8.70;;;4.90;99.90;;;;;;5029125;28;20029;-78
2022/11/06 00:51:39;;;;;;;15.70;8.18;;;5.00;99.90;;;;;;5015780;28;20032;-78
2022/11/06 00:54:08;;;;;;;15.80;8.55;;;5.00;99.90;;;;;;5026515;28;20036;-78
2022/11/06 00:56:34;;;;;;;18.77;8.38;;;4.90;99.90;;;;;;5014024;28;20025;-78
2022/11/06 00:59:03;;;;;;;14.90;8.20;;;4.90;99.90;;;;;;5025040;28;20144;-77
2022/11/06 01:01:31;;;;;;;15.15;9.05;;;4.80;99.90;;;;;;5017589;28;20041;-77
2022/11/06 01:04:03;;;;;;;18.02;7.88;;;4.90;99.90;;;;;;5018305;28;20018;-77
2022/11/06 01:06:32;;;;;;;14.25;8.55;;;4.80;99.90;;;;;;5016990;28;20028;-78
2022/11/06 01:08:58;;;;;;;14.82;8.68;;;4.90;99.90;;;;;;5018793;28;20022;-78
2022/11/06 01:11:30;;;;;;;14.88;9.18;;;4.80;99.90;;;;;;5015158;28;20030;-77
2022/11/06 01:13:58;;;;;;;15.15;8.68;;;4.80;99.90;;;;;;5045246;28;20120;-77
2022/11/06 01:16:25;;;;;;;12.95;9.02;;;4.70;99.90;;;;;;5019932;28;20030;-78
2022/11/06 01:18:52;;;;;;;15.50;9.57;;;4.80;99.90;;;;;;5027228;28;20080;-77
2022/11/06 01:21:24;;;;;;;17.35;9.52;;;4.70;99.90;;;;;;5019595;28;20026;-77
2022/11/06 01:23:55;;;;;;;16.70;8.95;;;4.70;99.90;;;;;;5025160;28;20037;-78
2022/11/06 01:26:22;;;;;;;9.77;8.40;;;4.60;99.90;;;;;;5025974;28;20025;-78
2022/11/06 01:28:48;;;;;;;15.95;8.98;;;4.60;99.90;;;;;;5023594;28;20030;-77
2022/11/06 01:31:18;;;;;;;12.90;8.77;;;4.70;99.90;;;;;;5020067;28;20036;-78
2022/11/06 01:33:44;;;;;;;20.63;10.48;;;4.60;99.90;;;;;;5019895;28;20026;-77
2022/11/06 01:36:11;;;;;;;12.95;9.15;;;4.60;99.90;;;;;;5018736;28;20060;-79
2022/11/06 01:38:44;;;;;;;14.07;10.32;;;4.60;99.90;;;;;;5018997;28;20034;-77
2022/11/06 01:41:15;;;;;;;18.05;9.77;;;4.60;99.90;;;;;;5012141;28;20390;-78
2022/11/06 01:43:54;;;;;;;14.80;10.50;;;4.50;99.90;;;;;;5017130;28;20022;-77
2022/11/06 01:46:23;;;;;;;20.15;10.63;;;4.50;99.90;;;;;;5014156;28;20017;-77
2022/11/06 01:49:11;;;;;;;15.05;9.23;;;4.40;99.90;;;;;;5027890;28;20030;-77
2022/11/06 01:51:47;;;;;;;16.50;8.90;;;4.40;99.90;;;;;;5019376;28;20031;-78
2022/11/06 01:54:14;;;;;;;14.85;9.77;;;4.40;99.90;;;;;;5029904;28;20025;-78
2022/11/06 01:56:41;;;;;;;17.88;9.48;;;4.40;99.90;;;;;;5021433;28;20137;-78
2022/11/06 01:59:10;;;;;;;19.48;11.23;;;4.40;99.90;;;;;;5028325;28;20585;-78
2022/11/06 02:01:35;;;;;;;21.20;11.07;;;4.30;99.90;;;;;;5019184;28;20049;-78
2022/11/06 02:04:18;;;;;;;14.18;11.05;;;4.20;99.90;;;;;;5032544;28;20522;-78
2022/11/06 02:06:45;;;;;;;15.43;11.82;;;4.20;99.90;;;;;;5018409;28;20121;-78
2022/11/06 02:09:12;;;;;;;14.93;9.82;;;4.10;99.90;;;;;;5021791;28;20026;-78
2022/11/06 02:11:43;;;;;;;13.90;9.60;;;4.00;99.90;;;;;;5015894;28;20018;-77
2022/11/06 02:14:39;;;;;;;23.55;12.73;;;4.10;99.90;;;;;;5036399;28;20061;-78
2022/11/06 02:17:48;;;;;;;14.68;10.00;;;4.10;99.90;;;;;;5035534;28;20033;-77
2022/11/06 02:20:39;;;;;;;14.48;9.35;;;4.00;99.90;;;;;;5033024;28;20042;-77
2022/11/06 02:23:38;;;;;;;15.02;9.85;;;4.00;99.90;;;;;;5028154;28;20029;-78
2022/11/06 02:26:42;;;;;;;21.70;13.68;;;4.10;99.90;;;;;;5019802;28;20053;-78
2022/11/06 02:29:13;;;;;;;20.88;12.93;;;4.10;99.90;;;;;;5024879;28;20026;-77
2022/11/06 02:31:43;;;;;;;18.23;11.38;;;4.00;99.90;;;;;;5020721;28;20025;-77
2022/11/06 02:34:15;;;;;;;21.60;13.88;;;4.00;99.90;;;;;;5025712;28;20018;-78
2022/11/06 02:37:03;;;;;;;14.15;10.70;;;3.90;99.90;;;;;;5022396;28;20483;-78
2022/11/06 02:39:31;;;;;;;15.82;9.65;;;4.00;99.90;;;;;;5023918;28;20040;-77
2022/11/06 02:41:59;;;;;;;15.68;8.45;;;4.00;99.90;;;;;;5016251;28;20057;-78
2022/11/06 02:44:29;;;;;;;17.98;8.93;;;4.00;99.90;;;;;;5020503;28;20026;-77
2022/11/06 02:47:03;;;;;;;21.00;10.77;;;4.00;99.90;;;;;;5019327;28;20037;-78
2022/11/06 02:49:53;;;;;;;13.80;10.07;;;4.00;99.90;;;;;;5030308;28;20044;-77
2022/11/06 02:52:28;;;;;;;18.45;10.50;;;3.90;99.90;;;;;;5021872;28;20076;-77
2022/11/06 02:55:07;;;;;;;15.23;9.43;;;3.90;99.90;;;;;;5027823;28;20061;-78
2022/11/06 02:57:37;;;;;;;17.55;9.05;;;3.90;99.90;;;;;;5022915;28;20034;-77
2022/11/06 03:00:13;;;;;;;14.63;9.77;;;3.90;99.90;;;;;;5024485;28;20034;-78
2022/11/06 03:02:43;;;;;;;19.05;10.23;;;3.90;99.90;;;;;;5019274;28;20030;-78
2022/11/06 03:05:28;;;;;;;12.80;10.93;;;3.80;99.90;;;;;;5018430;28;20044;-77
2022/11/06 03:08:08;;;;;;;18.88;10.13;;;3.80;99.90;;;;;;5018662;28;20038;-77
2022/11/06 03:10:45;;;;;;;17.48;10.43;;;3.70;99.90;;;;;;5014861;28;20022;-77
2022/11/06 03:13:15;;;;;;;21.90;11.88;;;3.80;99.90;;;;;;5027236;28;20033;-77
2022/11/06 03:15:51;;;;;;;18.35;11.00;;;3.80;99.90;;;;;;5026275;28;20097;-77
2022/11/06 03:18:32;;;;;;;22.25;10.65;;;3.80;99.90;;;;;;5028251;28;20061;-77
2022/11/06 03:21:25;;;;;;;15.18;11.00;;;3.80;99.90;;;;;;5024006;28;20475;-77
2022/11/06 03:24:08;;;;;;;24.50;12.15;;;3.80;99.90;;;;;;5040101;28;20033;-77
2022/11/06 03:26:43;;;;;;;21.85;10.77;;;3.80;99.90;;;;;;5019222;28;20108;-77
2022/11/06 03:29:09;;;;;;;22.42;12.43;;;3.80;99.90;;;;;;5024810;28;20065;-77
2022/11/06 03:31:52;;;;;;;21.25;12.63;;;3.70;99.90;;;;;;5025147;28;20041;-77
2022/11/06 03:34:34;;;;;;;19.67;12.30;;;3.80;99.90;;;;;;5025435;28;20517;-76
2022/11/06 03:37:10;;;;;;;17.40;11.88;;;3.80;99.90;;;;;;5018146;28;20041;-77
2022/11/06 03:39:42;;;;;;;27.77;12.98;;;3.80;99.90;;;;;;5022383;28;20025;-77
2022/11/06 03:42:15;;;;;;;19.88;12.55;;;3.80;99.90;;;;;;5016455;28;20022;-77
2022/11/06 03:44:47;;;;;;;19.60;12.05;;;3.90;99.90;;;;;;5019413;28;20024;-76
2022/11/06 03:47:25;;;;;;;20.52;13.05;;;3.90;99.90;;;;;;5029393;28;20354;-77
2022/11/06 03:50:06;;;;;;;18.23;11.70;;;3.90;99.90;;;;;;5030550;28;20022;-77
2022/11/06 03:52:49;;;;;;;16.00;10.82;;;3.80;99.90;;;;;;5022804;28;20096;-77
2022/11/06 03:55:23;;;;;;;16.67;10.85;;;3.80;99.90;;;;;;5004157;28;20491;-77
2022/11/06 03:58:05;;;;;;;20.65;11.43;;;3.80;99.90;;;;;;5021060;28;20026;-77
2022/11/06 04:00:34;;;;;;;16.30;10.55;;;3.70;99.90;;;;;;5019655;28;20121;-77
2022/11/06 04:03:06;;;;;;;16.25;9.65;;;3.70;99.90;;;;;;5016034;28;20100;-77
2022/11/06 04:05:38;;;;;;;14.98;10.80;;;3.70;99.90;;;;;;5019023;28;20022;-77
2022/11/06 04:13:57;;;;;;;18.35;12.35;;;3.80;99.90;;;;;;5029242;28;20060;-77
2022/11/06 04:16:42;;;;;;;21.65;9.82;;;3.70;99.90;;;;;;5021314;28;20044;-78
2022/11/06 04:19:17;;;;;;;17.58;10.43;;;3.70;99.90;;;;;;5031797;28;20029;-77
2022/11/06 04:22:22;;;;;;;17.35;10.73;;;3.80;99.90;;;;;;5016657;28;20026;-77
2022/11/06 04:28:33;;;;;;;17.90;10.95;;;3.80;99.90;;;;;;5028817;28;20191;-77
2022/11/06 04:31:26;;;;;;;25.55;11.35;;;3.80;99.90;;;;;;5018678;28;20055;-77
2022/11/06 04:34:08;;;;;;;16.30;10.45;;;3.70;99.90;;;;;;5020944;28;20497;-77
2022/11/06 04:36:47;;;;;;;21.23;11.77;;;3.60;99.90;;;;;;5011910;28;20028;-77
2022/11/06 04:39:18;;;;;;;13.25;10.10;;;3.60;99.90;;;;;;5030656;28;20030;-77
2022/11/06 04:41:43;;;;;;;15.00;9.90;;;3.60;99.90;;;;;;5012693;28;20076;-77
2022/11/06 04:44:23;;;;;;;13.75;10.20;;;3.50;99.90;;;;;;5031829;28;20030;-77
2022/11/06 04:46:59;;;;;;;11.82;8.82;;;3.60;99.90;;;;;;5021125;28;20025;-77
2022/11/06 04:49:29;;;;;;;11.52;9.75;;;3.60;99.90;;;;;;5028875;28;20144;-77
2022/11/06 04:51:56;;;;;;;16.63;10.55;;;3.50;99.90;;;;;;5017728;28;20544;-77
2022/11/06 04:54:23;;;;;;;13.82;10.18;;;3.40;99.90;;;;;;5027564;28;20483;-78
2022/11/06 04:56:49;;;;;;;12.60;9.10;;;3.30;99.90;;;;;;5013948;28;20021;-78
2022/11/06 04:59:17;;;;;;;17.73;9.48;;;3.30;99.90;;;;;;5023833;28;20022;-77
2022/11/06 05:01:43;;;;;;;13.70;9.65;;;3.20;99.90;;;;;;5018379;28;20017;-77
2022/11/06 05:04:11;;;;;;;13.73;9.68;;;3.20;99.90;;;;;;5019615;28;20041;-77
2022/11/06 05:06:36;;;;;;;14.20;9.68;;;3.20;99.90;;;;;;5016188;28;20033;-77
2022/11/06 05:09:03;;;;;;;12.65;9.10;;;3.20;99.90;;;;;;5016625;28;20057;-77
2022/11/06 05:11:28;;;;;;;13.93;8.55;;;3.20;99.90;;;;;;5014050;28;20406;-77
2022/11/06 05:13:54;;;;;;;15.35;9.05;;;3.20;99.90;;;;;;5030155;28;20050;-77
2022/11/06 05:16:20;;;;;;;15.52;10.13;;;3.20;99.90;;;;;;5021870;28;20022;-77
2022/11/06 05:18:46;;;;;;;16.98;9.15;;;3.30;99.90;;;;;;5042889;28;20034;-77
2022/11/06 05:23:57;;;;;;;19.63;10.23;;;3.20;99.90;;;;;;5027528;28;20033;-77
2022/11/06 05:26:24;;;;;;;15.68;9.70;;;3.20;99.90;;;;;;5022848;28;20027;-77
2022/11/06 05:28:50;;;;;;;14.32;9.93;;;3.20;99.90;;;;;;5028696;28;20033;-77
2022/11/06 05:31:16;;;;;;;17.65;9.88;;;3.20;99.90;;;;;;5031530;28;20033;-77
2022/11/06 05:33:41;;;;;;;15.60;8.85;;;3.20;99.90;;;;;;5027818;28;20480;-77
2022/11/06 05:36:07;;;;;;;16.63;10.23;;;3.20;99.90;;;;;;5024099;28;20059;-77
2022/11/06 05:38:33;;;;;;;14.60;9.77;;;3.20;99.90;;;;;;5024181;28;20022;-78
2022/11/06 05:40:59;;;;;;;16.90;9.45;;;3.20;99.90;;;;;;5023060;28;20065;-77
2022/11/06 05:43:25;;;;;;;15.85;8.70;;;3.20;99.90;;;;;;5022557;28;20045;-77
2022/11/06 05:45:51;;;;;;;14.02;9.27;;;3.10;99.90;;;;;;5016919;28;20031;-77
2022/11/06 05:48:17;;;;;;;13.50;8.80;;;3.10;99.90;;;;;;5034434;28;20029;-77
2022/11/06 05:50:43;;;;;;;16.95;9.98;;;3.10;99.90;;;;;;5024480;28;20064;-77
2022/11/06 05:53:09;;;;;;;15.60;9.05;;;3.20;99.90;;;;;;5031583;28;20017;-77
2022/11/06 05:55:35;;;;;;;13.98;9.60;;;3.10;99.90;;;;;;5028017;28;20126;-77
2022/11/06 05:58:00;;;;;;;14.45;9.63;;;3.20;99.90;;;;;;5023481;28;20423;-78
2022/11/06 06:00:26;;;;;;;17.40;10.38;;;3.20;99.90;;;;;;5022961;28;20113;-77
2022/11/06 06:02:52;;;;;;;16.98;9.15;;;3.10;99.90;;;;;;5026295;28;20022;-77
2022/11/06 06:05:18;;;;;;;11.35;9.50;;;3.10;99.90;;;;;;5024742;28;20018;-77
2022/11/06 06:07:43;;;;;;;14.82;9.18;;;3.10;99.90;;;;;;5038418;28;20088;-77
2022/11/06 06:10:10;;;;;;;10.45;8.60;;;3.00;99.90;;;;;;5020486;28;20030;-77
2022/11/06 06:12:38;;;;;;;11.93;8.43;;;3.00;99.90;;;;;;5025452;28;20545;-77
2022/11/06 06:15:04;;;;;;;15.32;9.27;;;3.00;99.90;;;;;;5034349;28;20047;-77
2022/11/06 06:17:30;;;;;;;15.50;9.93;;;2.90;99.90;;;;;;5028518;28;20025;-77
2022/11/06 06:19:56;;;;;;;13.15;9.77;;;3.00;99.90;;;;;;5033940;28;20475;-77
2022/11/06 06:22:23;;;;;;;17.38;8.52;;;2.90;99.90;;;;;;5026234;28;20046;-77
2022/11/06 06:24:49;;;;;;;14.88;9.00;;;2.90;99.90;;;;;;5031256;28;20476;-77
2022/11/06 06:27:15;;;;;;;17.83;9.25;;;2.90;99.90;;;;;;5022333;28;20033;-78
2022/11/06 06:29:40;;;;;;;16.38;9.50;;;2.90;99.90;;;;;;5032731;28;20481;-77
2022/11/06 06:32:06;;;;;;;16.30;10.15;;;2.90;99.90;;;;;;5023915;28;20125;-77
2022/11/06 06:34:32;;;;;;;13.35;9.63;;;2.90;99.90;;;;;;5031199;28;20159;-77
2022/11/06 06:36:58;;;;;;;17.75;10.43;;;2.90;99.90;;;;;;5020801;28;20026;-77
2022/11/06 06:39:23;;;;;;;13.18;10.15;;;2.80;99.90;;;;;;5024508;28;20022;-77
2022/11/06 06:41:49;;;;;;;16.55;9.75;;;2.80;99.90;;;;;;5014845;28;20014;-77
2022/11/06 06:44:15;;;;;;;15.32;10.20;;;2.80;99.90;;;;;;5020672;28;20450;-77
2022/11/06 06:46:41;;;;;;;13.40;10.10;;;2.80;99.90;;;;;;5017783;28;20033;-77
2022/11/06 06:49:07;;;;;;;17.63;10.48;;;2.80;99.90;;;;;;5030498;28;20029;-78
2022/11/06 06:51:33;;;;;;;15.13;10.73;;;2.80;99.90;;;;;;5024073;28;20116;-78
2022/11/06 06:53:59;;;;;;;15.18;9.70;;;2.90;99.90;;;;;;5029073;28;20035;-77
2022/11/06 06:56:25;;;;;;;9.90;8.90;;;2.90;99.90;;;;;;5016386;28;20041;-77
2022/11/06 06:58:54;;;;;;;17.15;9.02;;;2.90;99.90;;;;;;5029445;28;20201;-77
2022/11/06 07:01:20;;;;;;;14.68;9.20;;;2.90;99.90;;;;;;5013395;28;20034;-77
2022/11/06 07:03:46;;;;;;;9.52;8.52;;;2.90;99.90;;;;;;5023882;28;20013;-77
2022/11/06 07:06:12;;;;;;;9.80;8.80;;;2.90;99.90;;;;;;5018519;28;20101;-77
2022/11/06 07:08:38;;;;;;;12.27;8.77;;;2.90;99.90;;;;;;5018889;28;20581;-78
2022/11/06 07:11:09;;;;;;;10.65;8.60;;;3.00;99.90;;;;;;5009511;28;20058;-80
2022/11/06 07:13:35;;;;;;;12.32;9.32;;;3.00;99.90;;;;;;5056964;28;20050;-82
2022/11/06 07:16:07;;;;;;;11.23;9.52;;;3.10;99.90;;;;;;5018580;28;20026;-81
2022/11/06 07:18:34;;;;;;;12.60;9.38;;;3.10;99.90;;;;;;5035306;28;20037;-81
2022/11/06 07:21:02;;;;;;;13.25;10.07;;;3.20;99.90;;;;;;5008681;28;20026;-81
2022/11/06 07:23:28;;;;;;;52.20;29.33;;;3.30;99.90;;;;;;5015046;28;20278;-84
2022/11/06 07:25:54;;;;;;;59.25;42.53;;;3.30;99.90;;;;;;5022312;28;20130;-80
2022/11/06 07:28:20;;;;;;;195.48;126.30;;;3.40;99.90;;;;;;5014903;28;20029;-80
2022/11/06 07:30:46;;;;;;;39.53;26.13;;;3.40;99.90;;;;;;5006738;28;20109;-80
2022/11/06 07:33:12;;;;;;;37.00;28.17;;;3.50;99.90;;;;;;5024352;28;20099;-81
2022/11/06 07:35:38;;;;;;;419.52;303.00;;;3.60;99.90;;;;;;5020250;28;20454;-80
2022/11/06 07:38:05;;;;;;;55.83;40.97;;;3.70;99.90;;;;;;5025922;28;20030;-80
2022/11/06 07:40:35;;;;;;;129.05;89.72;;;3.90;99.90;;;;;;5028776;28;20013;-80
2022/11/06 07:43:08;;;;;;;175.20;127.03;;;3.90;99.90;;;;;;5025299;28;20033;-80
2022/11/06 07:45:35;;;;;;;29.00;22.08;;;4.00;99.90;;;;;;5024987;28;20017;-80
2022/11/06 07:48:01;;;;;;;16.30;12.95;;;4.10;99.90;;;;;;5022886;28;20029;-80
2022/11/06 07:50:27;;;;;;;14.95;10.55;;;4.30;99.90;;;;;;5020360;28;20018;-79
2022/11/06 07:52:53;;;;;;;13.32;9.90;;;4.40;99.90;;;;;;5016338;28;20057;-80
2022/11/06 07:55:19;;;;;;;15.38;12.43;;;4.50;99.90;;;;;;5012575;28;20025;-80
2022/11/06 07:57:46;;;;;;;15.77;10.77;;;4.60;99.90;;;;;;5015592;28;20034;-78
2022/11/06 08:00:12;;;;;;;15.85;10.10;;;4.70;99.90;;;;;;5012377;28;20018;-78
2022/11/06 08:02:38;;;;;;;17.67;9.73;;;4.90;99.90;;;;;;5014114;28;20022;-79
2022/11/06 08:05:04;;;;;;;15.88;9.27;;;5.00;99.90;;;;;;5014690;28;20487;-77
2022/11/06 08:07:30;;;;;;;13.75;9.30;;;5.10;99.90;;;;;;5045323;28;20033;-78
2022/11/06 08:09:56;;;;;;;16.80;12.98;;;5.30;99.90;;;;;;5014634;28;20022;-78
2022/11/06 08:12:22;;;;;;;15.55;11.43;;;5.30;99.90;;;;;;5020306;28;20029;-78
2022/11/06 08:14:47;;;;;;;38.00;25.35;;;5.40;99.90;;;;;;5034176;28;20042;-78
2022/11/06 08:17:13;;;;;;;35.90;24.40;;;5.50;99.90;;;;;;5012598;28;20499;-79
2022/11/06 08:19:39;;;;;;;110.55;75.72;;;5.60;99.90;;;;;;5015523;28;20522;-78
2022/11/06 08:22:05;;;;;;;21.45;11.73;;;5.70;99.90;;;;;;5009276;28;20049;-78
2022/11/06 08:24:31;;;;;;;13.93;9.15;;;5.80;99.90;;;;;;5015038;28;20017;-78
2022/11/06 08:26:57;;;;;;;12.05;8.55;;;6.00;99.90;;;;;;4996614;28;21984;-78
2022/11/06 08:29:23;;;;;;;16.30;8.48;;;6.20;99.90;;;;;;5012232;28;20022;-78
2022/11/06 08:31:49;;;;;;;14.75;8.65;;;6.40;99.90;;;;;;5010411;28;20041;-78
2022/11/06 08:34:15;;;;;;;12.95;8.00;;;6.50;99.90;;;;;;5002162;28;20107;-79
2022/11/06 08:36:45;;;;;;;11.68;8.68;;;6.70;99.90;;;;;;5006900;28;20052;-79
2022/11/06 08:39:12;;;;;;;8.45;7.53;;;6.90;99.90;;;;;;5004059;28;20109;-78
2022/11/06 08:41:39;;;;;;;28.83;10.40;;;7.00;99.90;;;;;;5012436;28;20110;-79
2022/11/06 08:44:05;;;;;;;12.40;7.65;;;7.20;99.90;;;;;;5023862;28;20080;-80
2022/11/06 08:46:31;;;;;;;14.23;7.55;;;7.30;99.90;;;;;;5014389;28;20018;-78
2022/11/06 08:48:57;;;;;;;14.05;7.75;;;7.50;99.90;;;;;;5012964;28;20038;-78
2022/11/06 08:51:23;;;;;;;11.93;6.63;;;7.60;99.90;;;;;;5025695;28;20442;-78
2022/11/06 08:53:49;;;;;;;11.25;6.50;;;7.80;99.90;;;;;;5031523;28;20021;-77
2022/11/06 08:56:15;;;;;;;9.07;6.00;;;8.00;99.90;;;;;;5013446;28;20035;-78
2022/11/06 08:58:41;;;;;;;8.88;5.38;;;8.10;99.90;;;;;;5010481;28;20030;-81
2022/11/06 09:01:07;;;;;;;6.20;5.40;;;8.30;99.90;;;;;;5012378;28;20486;-79
2022/11/06 09:03:33;;;;;;;19.13;5.38;;;8.40;99.90;;;;;;5029065;28;20037;-79
2022/11/06 09:05:58;;;;;;;7.68;4.82;;;8.60;99.90;;;;;;5012520;28;20065;-80
2022/11/06 09:08:24;;;;;;;8.00;4.72;;;8.70;99.90;;;;;;5025908;28;20044;-80
2022/11/06 09:10:50;;;;;;;6.15;4.45;;;8.80;99.90;;;;;;5023344;28;20092;-80
2022/11/06 09:13:16;;;;;;;11.35;4.82;;;8.90;99.90;;;;;;5024861;28;20106;-78
2022/11/06 09:15:42;;;;;;;11.38;4.47;;;9.00;99.90;;;;;;5022554;28;20038;-79
2022/11/06 09:18:10;;;;;;;7.13;4.70;;;9.10;99.90;;;;;;5023802;28;20026;-78
2022/11/06 09:20:36;;;;;;;7.50;4.05;;;9.40;99.90;;;;;;5015875;28;20052;-78
2022/11/06 09:23:04;;;;;;;19.35;5.82;;;9.50;99.90;;;;;;5023250;28;20437;-79
2022/11/06 09:25:30;;;;;;;7.40;4.40;;;9.50;99.90;;;;;;5020043;28;20026;-79
2022/11/06 09:27:56;;;;;;;8.55;4.00;;;9.60;99.90;;;;;;5015994;28;20048;-78
2022/11/06 09:30:24;;;;;;;11.88;5.35;;;9.80;99.90;;;;;;5014306;28;20038;-77
2022/11/06 09:32:52;;;;;;;4.70;4.03;;;9.90;99.90;;;;;;5015473;28;20108;-77
2022/11/06 09:35:20;;;;;;;6.47;3.38;;;10.10;99.90;;;;;;5016940;28;20112;-77
2022/11/06 09:37:45;;;;;;;7.30;3.60;;;10.20;99.90;;;;;;5014908;28;20053;-77
2022/11/06 09:40:52;;;;;;;11.27;4.15;;;10.40;99.90;;;;;;5024274;28;20018;-76
2022/11/06 09:43:35;;;;;;;5.53;4.00;;;10.50;99.90;;;;;;5043074;28;20034;-76
2022/11/06 09:46:09;;;;;;;5.97;3.30;;;10.70;99.90;;;;;;5009499;28;20080;-76
2022/11/06 09:48:44;;;;;;;7.97;3.60;;;10.70;99.90;;;;;;5013356;28;20105;-77
2022/11/06 09:51:19;;;;;;;5.78;3.60;;;10.80;99.90;;;;;;5009480;28;20025;-78
2022/11/06 09:54:00;;;;;;;8.80;3.80;;;11.00;99.90;;;;;;5014829;28;20014;-78
2022/11/06 09:56:31;;;;;;;7.35;3.17;;;11.20;99.90;;;;;;5005159;28;20058;-79
2022/11/06 09:58:58;;;;;;;4.25;3.22;;;11.30;99.90;;;;;;5012647;28;20029;-78
2022/11/06 10:01:34;;;;;;;3.70;3.10;;;11.40;99.90;;;;;;5013122;28;20117;-78
2022/11/06 10:04:02;;;;;;;5.35;2.47;;;11.50;99.90;;;;;;5012648;28;20018;-78
2022/11/06 10:06:29;;;;;;;4.00;2.70;;;11.60;99.90;;;;;;5009439;28;20022;-77
2022/11/06 10:09:01;;;;;;;4.75;2.55;;;11.60;99.90;;;;;;5029652;28;20517;-78
2022/11/06 10:11:51;;;;;;;3.67;2.60;;;11.80;99.90;;;;;;5013393;28;20113;-75
2022/11/06 10:14:29;;;;;;;8.15;2.97;;;12.10;99.90;;;;;;5015077;28;20050;-75
2022/11/06 10:17:00;;;;;;;4.35;2.78;;;12.20;99.90;;;;;;5028821;28;20121;-75
2022/11/06 10:20:00;;;;;;;4.90;2.80;;;12.40;99.90;;;;;;5017419;28;20024;-76
2022/11/06 10:22:39;;;;;;;4.20;2.90;;;12.50;99.90;;;;;;5013743;28;20030;-76
2022/11/06 10:25:47;;;;;;;3.78;2.58;;;12.60;99.90;;;;;;5015971;28;20022;-78
2022/11/06 10:28:24;;;;;;;8.15;2.63;;;12.60;99.90;;;;;;5016174;28;20400;-76
2022/11/06 10:31:07;;;;;;;8.73;4.68;;;12.80;99.90;;;;;;5025731;28;20045;-76
2022/11/06 10:33:49;;;;;;;7.45;2.92;;;12.90;99.90;;;;;;5016849;28;20084;-75
2022/11/06 10:36:42;;;;;;;25.48;12.27;;;12.90;99.90;;;;;;5013096;28;20527;-77
2022/11/06 10:39:27;;;;;;;27.40;11.18;;;13.00;99.90;;;;;;5013656;28;20422;-77
2022/11/06 10:42:04;;;;;;;44.60;23.08;;;13.10;99.90;;;;;;5011154;28;20071;-78
2022/11/06 10:44:58;;;;;;;5.68;2.75;;;13.10;99.90;;;;;;5014142;28;20057;-79
2022/11/06 10:47:35;;;;;;;27.65;12.32;;;13.30;99.90;;;;;;5014299;28;20052;-76
2022/11/06 10:50:03;;;;;;;22.33;10.13;;;13.30;99.90;;;;;;5013000;28;20018;-78
2022/11/06 10:52:35;;;;;;;5.22;3.15;;;13.40;99.90;;;;;;5028636;28;20395;-77
2022/11/06 10:55:38;;;;;;;9.68;4.13;;;13.50;99.90;;;;;;5029360;28;20116;-79
2022/11/06 10:58:08;;;;;;;7.30;2.85;;;13.50;99.90;;;;;;5030001;28;20062;-77
2022/11/06 11:00:35;;;;;;;7.10;2.50;;;13.60;99.90;;;;;;5011519;28;20072;-79
2022/11/06 11:03:25;;;;;;;82.00;42.30;;;13.70;99.90;;;;;;5014596;28;20030;-78
2022/11/06 11:05:51;;;;;;;4.78;3.22;;;13.70;99.90;;;;;;5026269;28;20014;-78
2022/11/06 11:08:43;;;;;;;6.65;2.50;;;13.80;99.90;;;;;;5016427;28;20033;-78
2022/11/06 11:11:19;;;;;;;5.68;2.97;;;13.80;99.90;;;;;;5026531;28;20072;-77
2022/11/06 11:13:47;;;;;;;4.47;3.20;;;13.80;99.90;;;;;;5014088;28;20506;-77
2022/11/06 11:16:17;;;;;;;14.13;6.55;;;13.90;99.90;;;;;;5012873;28;20036;-78
2022/11/06 11:18:46;;;;;;;6.57;3.10;;;14.00;99.90;;;;;;5015664;28;20029;-77
2022/11/06 11:21:12;;;;;;;7.40;2.45;;;14.00;99.90;;;;;;5012355;28;20026;-77
2022/11/06 11:23:38;;;;;;;6.25;2.60;;;14.00;99.90;;;;;;5029540;28;20018;-77
2022/11/06 11:26:23;;;;;;;7.85;3.33;;;14.10;99.90;;;;;;5013519;28;20022;-76
2022/11/06 11:29:11;;;;;;;50.17;27.85;;;14.10;99.90;;;;;;5014953;28;20076;-77
2022/11/06 11:31:37;;;;;;;31.42;19.08;;;14.20;99.90;;;;;;5005709;28;20045;-78
2022/11/06 11:34:14;;;;;;;47.28;24.40;;;14.40;99.90;;;;;;5017342;28;20060;-77
2022/11/06 11:36:49;;;;;;;8.43;3.42;;;14.30;99.90;;;;;;5011011;28;20524;-77
2022/11/06 11:39:17;;;;;;;75.90;37.78;;;14.40;99.90;;;;;;5032119;28;20029;-78
2022/11/06 11:41:43;;;;;;;103.47;54.88;;;14.40;99.90;;;;;;5017609;28;20459;-77
2022/11/06 11:44:19;;;;;;;141.73;77.72;;;14.40;99.90;;;;;;5032120;28;20105;-77
2022/11/06 11:46:53;;;;;;;18.48;10.75;;;14.60;99.90;;;;;;5010592;28;20057;-77
2022/11/06 11:49:30;;;;;;;5.68;3.15;;;14.60;99.90;;;;;;5013884;28;20147;-77
2022/11/06 11:52:00;;;;;;;3.90;2.17;;;14.70;99.90;;;;;;5015600;28;20025;-79
2022/11/06 11:54:29;;;;;;;4.53;2.10;;;14.70;99.90;;;;;;5025664;28;20076;-76
2022/11/06 11:57:01;;;;;;;44.65;23.95;;;14.70;99.90;;;;;;5017723;28;20018;-77
2022/11/06 12:00:00;;;;;;;13.77;7.15;;;14.80;99.90;;;;;;5040332;28;20065;-77
2022/11/06 12:02:34;;;;;;;5.60;2.50;;;14.80;99.90;;;;;;5018915;28;20025;-76
2022/11/06 12:05:16;;;;;;;12.13;6.57;;;14.80;99.90;;;;;;5021950;28;20037;-77
2022/11/06 12:07:46;;;;;;;15.77;8.70;;;14.90;99.90;;;;;;5018764;28;20048;-77
2022/11/06 12:10:27;;;;;;;5.67;3.17;;;15.00;99.90;;;;;;5014346;28;20041;-77
2022/11/06 12:12:55;;;;;;;11.60;5.30;;;14.90;99.90;;;;;;5024125;28;20030;-77
2022/11/06 12:15:26;;;;;;;68.60;36.83;;;15.10;99.90;;;;;;5019298;28;20104;-77
2022/11/06 12:18:02;;;;;;;9.45;3.83;;;15.30;99.90;;;;;;5026379;28;20036;-79
2022/11/06 12:20:54;;;;;;;6.88;3.67;;;15.40;99.90;;;;;;5025127;28;20029;-78
2022/11/06 12:23:46;;;;;;;7.32;2.15;;;15.50;99.90;;;;;;5026195;28;20021;-77
2022/11/06 12:26:34;;;;;;;7.05;3.33;;;15.50;99.90;;;;;;5015436;28;20041;-79
2022/11/06 12:29:10;;;;;;;4.65;2.80;;;15.50;99.90;;;;;;5020873;28;20084;-78
2022/11/06 12:31:58;;;;;;;5.10;2.97;;;15.60;99.90;;;;;;5017738;28;20036;-77
2022/11/06 12:34:51;;;;;;;8.90;5.50;;;15.90;99.90;;;;;;5024176;28;20029;-78
2022/11/06 12:37:23;;;;;;;6.68;2.67;;;16.30;99.90;;;;;;5014185;28;20052;-77
2022/11/06 12:39:56;;;;;;;3.53;2.28;;;16.50;99.90;;;;;;5023035;28;20014;-79
2022/11/06 12:42:27;;;;;;;15.15;8.43;;;16.70;99.90;;;;;;5015521;28;20134;-78
2022/11/06 12:44:53;;;;;;;8.88;4.00;;;16.90;99.90;;;;;;5017923;28;20085;-79
2022/11/06 12:47:36;;;;;;;9.48;2.40;;;17.00;99.90;;;;;;5012842;28;20494;-78
2022/11/06 12:50:08;;;;;;;4.22;1.60;;;17.10;99.90;;;;;;5013828;28;20028;-79
2022/11/06 12:52:57;;;;;;;4.20;2.15;;;17.20;96.50;;;;;;5028610;28;20057;-77
2022/11/06 12:55:32;;;;;;;2.78;1.65;;;17.30;96.30;;;;;;5028253;28;20022;-77
2022/11/06 12:58:13;;;;;;;3.85;1.77;;;17.30;94.90;;;;;;5013880;28;20040;-77
2022/11/06 13:00:58;;;;;;;5.82;2.38;;;17.40;96.00;;;;;;5019892;28;20030;-78
2022/11/06 13:03:58;;;;;;;3.00;1.65;;;17.40;96.20;;;;;;5022598;28;20383;-78
2022/11/06 13:06:29;;;;;;;17.00;9.03;;;17.50;96.00;;;;;;5014385;28;20064;-79
2022/11/06 13:09:01;;;;;;;4.00;2.55;;;17.50;96.80;;;;;;5025230;28;20034;-78
2022/11/06 13:11:54;;;;;;;4.25;2.13;;;17.40;96.00;;;;;;5017873;28;20034;-78
2022/11/06 13:14:26;;;;;;;4.25;2.15;;;17.50;96.60;;;;;;5013960;28;20046;-78
2022/11/06 13:17:12;;;;;;;2.75;1.88;;;17.50;97.00;;;;;;5013046;28;20032;-78
2022/11/06 13:19:56;;;;;;;5.13;2.10;;;17.50;97.80;;;;;;5019221;28;20100;-80